Time;durP1;ratioP1;P1;durP2;ratioP2;P2;SDS_P1;SDS_P2;PMS_P1;PMS_P2;Temp;Humidity;BMP_temperature;BMP_pressure;BME280_temperature;BME280_humidity;BME280_pressure;Samples;Min_cycle;Max_cycle;Signal;HPM_P1;HPM_P2
2022/12/23 03:11:45;;;;;;;58.27;35.33;;;1.70;99.90;;;;;;5130040;27;20941;-70
2022/12/23 03:14:41;;;;;;;61.97;34.87;;;2.40;99.90;;;;;;5128799;28;20202;-71
2022/12/23 03:17:20;;;;;;;54.37;33.43;;;2.50;99.90;;;;;;5111176;28;20202;-71
2022/12/23 03:19:53;;;;;;;57.10;34.53;;;2.50;99.90;;;;;;5128733;28;20221;-71
2022/12/23 03:22:25;;;;;;;54.70;33.57;;;2.50;99.90;;;;;;5129646;28;20199;-70
2022/12/23 03:25:00;;;;;;;56.77;33.53;;;2.50;99.90;;;;;;5129901;28;20202;-71
2022/12/23 03:27:34;;;;;;;54.83;33.27;;;2.50;99.90;;;;;;5129942;28;20187;-71
2022/12/23 03:30:04;;;;;;;55.13;33.07;;;2.50;99.90;;;;;;5126332;28;20222;-71
2022/12/23 03:32:35;;;;;;;53.63;32.53;;;2.50;99.90;;;;;;5128582;28;20194;-73
2022/12/23 03:35:04;;;;;;;57.70;33.70;;;2.60;99.90;;;;;;5129574;28;20206;-70
2022/12/23 03:37:34;;;;;;;53.63;33.03;;;2.60;99.90;;;;;;5128143;28;20202;-71
2022/12/23 03:40:05;;;;;;;55.27;34.03;;;2.70;99.90;;;;;;5128679;28;20201;-70
2022/12/23 03:42:36;;;;;;;58.10;35.23;;;2.70;99.90;;;;;;5129245;28;20199;-72
2022/12/23 03:45:08;;;;;;;61.90;36.53;;;2.80;99.90;;;;;;5129217;28;20191;-71
2022/12/23 03:47:43;;;;;;;59.63;33.80;;;2.80;99.90;;;;;;5128694;28;20567;-72
2022/12/23 03:50:12;;;;;;;52.43;32.13;;;2.70;99.90;;;;;;5127223;28;20793;-71
2022/12/23 03:52:43;;;;;;;55.23;32.83;;;2.70;99.90;;;;;;5128869;28;20213;-71
2022/12/23 03:55:16;;;;;;;56.87;32.90;;;2.70;99.90;;;;;;5129097;28;20625;-71
2022/12/23 03:57:51;;;;;;;57.03;34.13;;;2.80;99.90;;;;;;5129275;28;20202;-71
2022/12/23 04:00:18;;;;;;;60.80;36.37;;;2.80;99.90;;;;;;5122788;28;20218;-72
2022/12/23 04:02:53;;;;;;;61.00;35.47;;;2.70;99.90;;;;;;5108289;28;20210;-70
2022/12/23 04:05:24;;;;;;;64.33;35.53;;;2.60;99.90;;;;;;5108515;28;20193;-71
2022/12/23 04:07:55;;;;;;;57.00;33.97;;;2.60;99.90;;;;;;5108608;28;20195;-71
2022/12/23 04:10:23;;;;;;;61.50;35.17;;;2.50;99.90;;;;;;5104931;28;20236;-70
2022/12/23 04:12:52;;;;;;;56.97;33.87;;;2.50;99.90;;;;;;5094643;28;20204;-73
2022/12/23 04:15:21;;;;;;;59.93;34.07;;;2.50;99.90;;;;;;5094848;28;20661;-71
2022/12/23 04:17:48;;;;;;;67.97;37.10;;;2.50;99.90;;;;;;5094973;28;20253;-70
2022/12/23 04:20:15;;;;;;;60.80;35.33;;;2.40;99.90;;;;;;5092859;28;20207;-72
2022/12/23 04:22:42;;;;;;;64.50;36.67;;;2.40;99.90;;;;;;5094613;28;20274;-70
2022/12/23 04:25:09;;;;;;;66.80;38.03;;;2.50;99.90;;;;;;5094022;28;20207;-71
2022/12/23 04:27:36;;;;;;;65.37;37.27;;;2.50;99.90;;;;;;5093837;28;20204;-71
2022/12/23 04:30:07;;;;;;;66.27;36.30;;;2.50;99.90;;;;;;5093447;28;20224;-70
2022/12/23 04:32:34;;;;;;;63.47;37.00;;;2.50;99.90;;;;;;5094123;28;20203;-71
2022/12/23 04:35:01;;;;;;;71.57;38.20;;;2.50;99.90;;;;;;5093580;28;20204;-71
2022/12/23 04:37:28;;;;;;;67.00;37.77;;;2.50;99.90;;;;;;5094423;28;20204;-70
2022/12/23 04:39:55;;;;;;;66.53;37.83;;;2.50;99.90;;;;;;5092714;28;20200;-72
2022/12/23 04:42:22;;;;;;;60.40;35.40;;;2.60;99.90;;;;;;5094234;28;20783;-71
2022/12/23 04:44:49;;;;;;;60.83;35.27;;;2.60;99.90;;;;;;5093482;28;20208;-72
2022/12/23 04:47:17;;;;;;;61.53;34.43;;;2.70;99.90;;;;;;5093664;28;20218;-71
2022/12/23 04:49:43;;;;;;;63.97;36.00;;;2.70;99.90;;;;;;5093382;28;20227;-71
2022/12/23 04:52:10;;;;;;;61.60;35.53;;;2.60;99.90;;;;;;5093861;28;20203;-72
2022/12/23 04:54:37;;;;;;;63.47;36.03;;;2.60;99.90;;;;;;5094029;28;20208;-73
2022/12/23 04:57:04;;;;;;;65.23;36.57;;;2.60;99.90;;;;;;5093728;28;20214;-71
2022/12/23 04:59:31;;;;;;;68.80;38.23;;;2.60;99.90;;;;;;5092177;28;20200;-72
2022/12/23 05:01:58;;;;;;;68.10;36.63;;;2.60;99.90;;;;;;5093562;28;20204;-71
2022/12/23 05:04:26;;;;;;;65.47;35.17;;;2.50;99.90;;;;;;5092088;28;20204;-71
2022/12/23 05:06:52;;;;;;;67.80;37.63;;;2.40;99.90;;;;;;5093253;28;20598;-72
2022/12/23 05:09:19;;;;;;;78.07;42.50;;;2.30;99.90;;;;;;5092676;28;20203;-71
2022/12/23 05:11:46;;;;;;;71.23;40.67;;;2.30;99.90;;;;;;5093536;28;20188;-70
2022/12/23 05:14:13;;;;;;;70.20;40.27;;;2.30;99.90;;;;;;5093241;28;20214;-71
2022/12/23 05:16:40;;;;;;;71.77;38.00;;;2.20;99.90;;;;;;5092576;28;20210;-70
2022/12/23 05:19:07;;;;;;;72.13;39.63;;;2.30;99.90;;;;;;5092622;28;20203;-74
2022/12/23 05:21:35;;;;;;;68.90;40.13;;;2.30;99.90;;;;;;5093566;28;20565;-72
2022/12/23 05:24:02;;;;;;;71.23;39.47;;;2.20;99.90;;;;;;5092347;28;20204;-71
2022/12/23 05:26:28;;;;;;;70.97;40.00;;;2.20;99.90;;;;;;5092641;28;20593;-73
2022/12/23 05:28:55;;;;;;;74.47;39.83;;;2.20;99.90;;;;;;5092800;28;20573;-70
2022/12/23 05:31:22;;;;;;;71.67;37.93;;;2.20;99.90;;;;;;5093337;28;20717;-71
2022/12/23 05:33:49;;;;;;;72.83;40.10;;;2.20;99.90;;;;;;5093295;28;20210;-71
2022/12/23 05:36:16;;;;;;;74.07;40.43;;;2.10;99.90;;;;;;5091854;28;20208;-73
2022/12/23 05:38:44;;;;;;;77.93;43.87;;;2.10;99.90;;;;;;5092994;28;20223;-74
2022/12/23 05:41:11;;;;;;;69.33;39.73;;;2.10;99.90;;;;;;5090405;28;20342;-70
2022/12/23 05:43:37;;;;;;;91.80;47.33;;;2.10;99.90;;;;;;5072865;28;20216;-72
2022/12/23 05:46:04;;;;;;;70.07;40.07;;;2.10;99.90;;;;;;5086098;28;20291;-73
2022/12/23 05:48:31;;;;;;;72.40;40.47;;;2.10;99.90;;;;;;5091831;28;20208;-72
2022/12/23 05:50:58;;;;;;;68.77;38.30;;;2.00;99.90;;;;;;5092598;28;20677;-70
2022/12/23 05:53:25;;;;;;;72.70;39.47;;;2.00;99.90;;;;;;5091671;28;20207;-69
2022/12/23 05:55:53;;;;;;;78.40;41.00;;;2.00;99.90;;;;;;5091016;28;20223;-68
2022/12/23 05:58:20;;;;;;;70.73;38.07;;;2.00;99.90;;;;;;5091717;28;20215;-71
2022/12/23 06:00:47;;;;;;;77.93;42.43;;;2.00;99.90;;;;;;5089228;28;20211;-71
2022/12/23 06:03:14;;;;;;;70.23;40.97;;;2.10;99.90;;;;;;5101721;28;20307;-69
2022/12/23 06:05:42;;;;;;;81.27;43.47;;;2.10;99.90;;;;;;5098857;28;20195;-71
2022/12/23 06:08:09;;;;;;;76.40;40.93;;;2.10;99.90;;;;;;5112076;28;20652;-70
2022/12/23 06:10:35;;;;;;;77.53;42.50;;;2.00;99.90;;;;;;5096506;28;20232;-70
2022/12/23 06:13:04;;;;;;;76.73;43.13;;;2.00;99.90;;;;;;5090282;28;20199;-69
2022/12/23 06:15:31;;;;;;;78.33;42.77;;;2.10;99.90;;;;;;5091071;28;20208;-68
2022/12/23 06:17:57;;;;;;;68.17;39.27;;;2.10;99.90;;;;;;5087675;28;20210;-69
2022/12/23 06:20:24;;;;;;;71.50;40.70;;;2.10;99.90;;;;;;5089851;28;20214;-69
2022/12/23 06:22:51;;;;;;;69.07;40.33;;;2.20;99.90;;;;;;5090987;28;20234;-69
2022/12/23 06:25:18;;;;;;;71.10;41.33;;;2.20;99.90;;;;;;5091375;28;20216;-70
2022/12/23 06:27:45;;;;;;;70.23;42.07;;;2.20;99.90;;;;;;5089611;28;20215;-70
2022/12/23 06:30:14;;;;;;;74.90;42.13;;;2.20;99.90;;;;;;5089416;28;20250;-67
2022/12/23 06:32:41;;;;;;;80.90;44.10;;;2.20;99.90;;;;;;5089437;28;20983;-70
2022/12/23 06:35:09;;;;;;;78.27;42.53;;;2.20;99.90;;;;;;5090952;28;20203;-70
2022/12/23 06:37:36;;;;;;;77.20;44.73;;;2.20;99.90;;;;;;5089440;28;20204;-70
2022/12/23 06:40:03;;;;;;;74.37;42.73;;;2.20;99.90;;;;;;5091136;28;20733;-70
2022/12/23 06:42:30;;;;;;;71.50;41.43;;;2.20;99.90;;;;;;5089931;28;20207;-71
2022/12/23 06:44:57;;;;;;;71.23;41.77;;;2.20;99.90;;;;;;5090835;28;20204;-71
2022/12/23 06:47:25;;;;;;;72.77;40.10;;;2.20;99.90;;;;;;5090037;28;20200;-70
2022/12/23 06:49:52;;;;;;;74.73;42.53;;;2.20;99.90;;;;;;5091261;28;20215;-69
2022/12/23 06:52:18;;;;;;;75.87;43.30;;;2.20;99.90;;;;;;5092034;28;20206;-70
2022/12/23 06:54:45;;;;;;;69.17;39.33;;;2.10;99.90;;;;;;5089993;28;20211;-71
2022/12/23 06:57:12;;;;;;;68.50;39.83;;;2.20;99.90;;;;;;5090645;28;20204;-69
2022/12/23 06:59:39;;;;;;;69.97;42.07;;;2.10;99.90;;;;;;5091671;28;20228;-69
2022/12/23 07:02:06;;;;;;;70.83;41.60;;;2.10;99.90;;;;;;5086907;28;20205;-68
2022/12/23 07:04:34;;;;;;;77.93;42.50;;;2.10;99.90;;;;;;5090623;28;20265;-70
2022/12/23 07:07:01;;;;;;;74.07;41.73;;;2.10;99.90;;;;;;5091693;28;20560;-70
2022/12/23 07:09:28;;;;;;;75.40;41.67;;;2.20;99.90;;;;;;5089883;28;20269;-70
2022/12/23 07:11:54;;;;;;;71.60;41.10;;;2.20;99.90;;;;;;5090659;28;20302;-69
2022/12/23 07:14:21;;;;;;;78.67;42.07;;;2.20;99.90;;;;;;5090678;28;20228;-69
2022/12/23 07:16:48;;;;;;;70.13;40.43;;;2.20;99.90;;;;;;5090934;28;20293;-68
2022/12/23 07:19:15;;;;;;;76.97;42.57;;;2.30;99.90;;;;;;5091658;28;20299;-69
2022/12/23 07:21:43;;;;;;;65.73;38.83;;;2.30;99.90;;;;;;5090556;28;20200;-71
2022/12/23 07:24:10;;;;;;;75.07;41.40;;;2.40;99.90;;;;;;5071656;28;20196;-68
2022/12/23 07:26:37;;;;;;;65.63;38.23;;;2.40;99.90;;;;;;5072861;28;20574;-69
2022/12/23 07:29:04;;;;;;;69.60;38.73;;;2.40;99.90;;;;;;5091298;28;20203;-69
2022/12/23 07:31:30;;;;;;;63.40;37.90;;;2.50;99.90;;;;;;5091577;28;20227;-71
2022/12/23 07:33:57;;;;;;;62.67;36.80;;;2.50;99.90;;;;;;5090121;28;20214;-71
2022/12/23 07:36:24;;;;;;;64.37;37.23;;;2.60;99.90;;;;;;5091723;28;20293;-70
2022/12/23 07:38:52;;;;;;;66.33;37.53;;;2.60;99.90;;;;;;5091225;28;20298;-68
2022/12/23 07:41:19;;;;;;;70.17;37.73;;;2.60;99.90;;;;;;5091515;28;20204;-67
2022/12/23 07:43:46;;;;;;;69.83;39.43;;;2.60;99.90;;;;;;5090658;28;20200;-69
2022/12/23 07:46:12;;;;;;;63.43;37.10;;;2.70;99.90;;;;;;5091512;28;20203;-69
2022/12/23 07:48:40;;;;;;;64.50;37.40;;;2.70;99.90;;;;;;5095109;28;20200;-70
2022/12/23 07:51:07;;;;;;;66.33;39.33;;;2.70;99.90;;;;;;5093914;28;20284;-70
2022/12/23 07:53:34;;;;;;;71.47;41.27;;;2.80;99.90;;;;;;5095351;28;20289;-70
2022/12/23 07:56:02;;;;;;;73.83;42.20;;;2.80;99.90;;;;;;5095080;28;20203;-68
2022/12/23 07:58:29;;;;;;;68.60;40.90;;;2.80;99.90;;;;;;5094468;28;20215;-70
2022/12/23 08:01:00;;;;;;;76.57;41.23;;;2.90;99.90;;;;;;5094292;28;20197;-70
2022/12/23 08:03:27;;;;;;;64.07;38.93;;;2.90;99.90;;;;;;5094066;28;20673;-69
2022/12/23 08:06:00;;;;;;;68.17;38.23;;;2.90;99.90;;;;;;5095133;28;20210;-69
2022/12/23 08:08:26;;;;;;;70.83;38.67;;;2.90;99.90;;;;;;5094283;28;20192;-68
2022/12/23 08:10:57;;;;;;;63.83;36.77;;;2.90;99.90;;;;;;5094693;28;20232;-71
2022/12/23 08:13:25;;;;;;;65.33;36.97;;;2.90;99.90;;;;;;5093966;28;20262;-69
2022/12/23 08:15:55;;;;;;;64.50;37.10;;;2.90;99.90;;;;;;5089854;28;20224;-70
2022/12/23 08:18:22;;;;;;;58.90;35.70;;;2.90;99.90;;;;;;5092838;28;20215;-70
2022/12/23 08:20:54;;;;;;;60.00;35.73;;;2.90;99.90;;;;;;5087752;28;20214;-70
2022/12/23 08:23:21;;;;;;;61.50;36.90;;;3.00;99.90;;;;;;5092095;28;20640;-68
2022/12/23 08:25:48;;;;;;;60.87;36.57;;;3.00;99.90;;;;;;5089950;28;20211;-70
2022/12/23 08:28:15;;;;;;;59.67;34.03;;;3.00;99.90;;;;;;5074317;28;20208;-69
2022/12/23 08:30:43;;;;;;;62.47;35.63;;;3.10;99.90;;;;;;5073961;28;20628;-69
2022/12/23 08:33:10;;;;;;;64.77;36.37;;;3.10;99.90;;;;;;5074889;28;20215;-69
2022/12/23 08:35:37;;;;;;;61.93;37.43;;;3.10;99.90;;;;;;5074385;28;20205;-70
2022/12/23 08:38:04;;;;;;;65.53;38.83;;;3.20;99.90;;;;;;5078886;28;20200;-71
2022/12/23 08:40:31;;;;;;;64.70;38.07;;;3.20;99.90;;;;;;5094180;28;20691;-70
2022/12/23 08:42:57;;;;;;;65.00;37.13;;;3.20;99.90;;;;;;5094387;28;20204;-70
2022/12/23 08:45:24;;;;;;;66.37;37.00;;;3.30;99.90;;;;;;5093929;28;20570;-70
2022/12/23 08:47:52;;;;;;;61.30;36.03;;;3.40;99.90;;;;;;5094061;28;20207;-71
2022/12/23 08:50:19;;;;;;;62.97;36.43;;;3.40;99.90;;;;;;5093774;28;20694;-70
2022/12/23 08:52:46;;;;;;;63.87;35.23;;;3.50;99.90;;;;;;5094139;28;20251;-68
2022/12/23 08:55:13;;;;;;;61.30;36.27;;;3.60;99.90;;;;;;5093790;28;20295;-72
2022/12/23 08:57:39;;;;;;;60.67;35.57;;;3.80;99.90;;;;;;5092449;28;20637;-69
2022/12/23 09:00:08;;;;;;;59.10;34.00;;;3.90;99.90;;;;;;5092618;28;20565;-69
2022/12/23 09:02:34;;;;;;;59.57;35.80;;;4.00;99.90;;;;;;5093380;28;20200;-69
2022/12/23 09:05:03;;;;;;;59.90;33.80;;;4.10;99.90;;;;;;5082465;28;20196;-68
2022/12/23 09:07:30;;;;;;;56.43;31.83;;;4.20;99.90;;;;;;5089559;28;20303;-69
2022/12/23 09:09:57;;;;;;;57.07;33.73;;;4.30;99.90;;;;;;5092528;28;20318;-71
2022/12/23 09:12:24;;;;;;;60.03;34.37;;;4.30;99.90;;;;;;5093565;28;20696;-70
2022/12/23 09:14:51;;;;;;;56.33;32.97;;;4.40;99.90;;;;;;5093652;28;20200;-72
2022/12/23 09:17:17;;;;;;;57.17;33.30;;;4.40;99.90;;;;;;5078939;28;20219;-71
2022/12/23 09:19:44;;;;;;;55.60;32.73;;;4.50;99.90;;;;;;5093357;28;20211;-69
2022/12/23 09:22:12;;;;;;;56.53;33.70;;;4.50;99.90;;;;;;5093358;28;20204;-69
2022/12/23 09:24:39;;;;;;;55.27;34.47;;;4.50;99.90;;;;;;5093278;28;20584;-70
2022/12/23 09:27:06;;;;;;;61.47;34.10;;;4.50;99.90;;;;;;5093177;28;20291;-67
2022/12/23 09:29:33;;;;;;;57.20;34.43;;;4.50;99.90;;;;;;5093383;28;20200;-70
2022/12/23 09:31:59;;;;;;;62.20;34.57;;;4.50;99.90;;;;;;5093457;28;20258;-69
2022/12/23 09:34:26;;;;;;;56.47;34.33;;;4.40;99.90;;;;;;5093165;28;20204;-72
2022/12/23 09:36:53;;;;;;;62.70;36.20;;;4.30;99.90;;;;;;5093452;28;20207;-70
2022/12/23 09:39:21;;;;;;;59.87;35.70;;;4.30;99.90;;;;;;5093277;28;20215;-69
2022/12/23 09:42:06;;;;;;;62.50;35.53;;;4.40;99.90;;;;;;5093275;28;20372;-70
2022/12/23 09:44:53;;;;;;;60.17;33.80;;;4.40;99.90;;;;;;5093244;28;20544;-69
2022/12/23 09:47:25;;;;;;;65.93;37.23;;;4.40;99.90;;;;;;5093140;28;20188;-69
2022/12/23 09:49:54;;;;;;;63.53;37.73;;;4.40;99.90;;;;;;5092585;28;20192;-70
2022/12/23 09:52:27;;;;;;;63.17;36.20;;;4.40;99.90;;;;;;5092855;28;20228;-71
2022/12/23 09:54:55;;;;;;;58.10;34.97;;;4.40;99.90;;;;;;5091401;28;20196;-69
2022/12/23 09:57:28;;;;;;;62.30;36.47;;;4.40;99.90;;;;;;5089891;28;20251;-69
2022/12/23 10:00:04;;;;;;;60.27;34.90;;;4.40;99.90;;;;;;5092696;28;20204;-71
2022/12/23 10:02:46;;;;;;;60.70;35.83;;;4.50;99.90;;;;;;5089261;28;20210;-69
2022/12/23 10:05:34;;;;;;;60.67;36.70;;;4.50;99.90;;;;;;5080929;28;20550;-68
2022/12/23 10:08:07;;;;;;;59.00;35.03;;;4.50;99.90;;;;;;5092702;28;20621;-70
2022/12/23 10:10:39;;;;;;;62.27;35.77;;;4.50;99.90;;;;;;5091749;28;20720;-70
2022/12/23 10:13:09;;;;;;;62.60;37.40;;;4.50;99.90;;;;;;5092288;28;20240;-71
2022/12/23 10:15:38;;;;;;;61.77;35.70;;;4.50;99.90;;;;;;5086419;28;20210;-75
2022/12/23 10:18:14;;;;;;;62.13;35.83;;;4.50;99.90;;;;;;5092589;28;20395;-75
2022/12/23 10:20:47;;;;;;;62.10;35.97;;;4.60;99.90;;;;;;5092380;28;20283;-76
2022/12/23 10:23:21;;;;;;;67.03;38.53;;;4.60;99.90;;;;;;5092157;28;20259;-75
2022/12/23 10:25:52;;;;;;;62.83;36.53;;;4.70;99.90;;;;;;5092627;28;20189;-75
2022/12/23 10:28:19;;;;;;;63.67;38.53;;;4.70;99.90;;;;;;5089657;28;20227;-74
2022/12/23 10:30:53;;;;;;;63.00;36.40;;;4.70;99.90;;;;;;5092502;28;20211;-77
2022/12/23 10:33:23;;;;;;;64.10;35.00;;;4.80;99.90;;;;;;5091077;28;20223;-74
2022/12/23 10:35:58;;;;;;;63.43;37.73;;;4.80;99.90;;;;;;5072629;28;20196;-71
2022/12/23 10:38:47;;;;;;;63.70;37.93;;;4.80;99.90;;;;;;5079651;28;20196;-72
2022/12/23 10:41:25;;;;;;;63.83;36.87;;;4.90;99.90;;;;;;5091928;28;20188;-70
2022/12/23 10:44:18;;;;;;;62.47;37.27;;;4.90;99.90;;;;;;5088642;28;20211;-71
2022/12/23 10:46:51;;;;;;;64.17;37.57;;;4.90;99.90;;;;;;5086236;28;20204;-74
2022/12/23 10:49:27;;;;;;;66.10;38.23;;;4.90;99.90;;;;;;5088883;28;20204;-75
2022/12/23 10:51:58;;;;;;;66.90;38.83;;;4.90;99.90;;;;;;5089563;28;20208;-74
2022/12/23 10:54:30;;;;;;;63.60;37.73;;;4.90;99.90;;;;;;5091299;28;20203;-74
2022/12/23 10:56:59;;;;;;;70.10;40.47;;;5.00;99.90;;;;;;5080922;28;20240;-78
2022/12/23 10:59:28;;;;;;;64.27;37.70;;;4.90;99.90;;;;;;5090776;28;20200;-75
2022/12/23 11:01:59;;;;;;;67.33;38.83;;;4.90;99.90;;;;;;5083834;28;20193;-75
2022/12/23 11:04:33;;;;;;;68.03;40.37;;;4.90;99.90;;;;;;5089864;28;20561;-75
2022/12/23 11:07:01;;;;;;;67.87;39.57;;;4.90;99.90;;;;;;5091239;28;20204;-74
2022/12/23 11:09:37;;;;;;;69.10;39.70;;;4.90;99.90;;;;;;5091784;28;20335;-75
2022/12/23 11:12:08;;;;;;;66.73;37.80;;;5.00;99.90;;;;;;5091039;28;20216;-75
2022/12/23 11:14:38;;;;;;;67.07;37.83;;;5.00;99.90;;;;;;5091970;28;20211;-75
2022/12/23 11:17:17;;;;;;;67.77;38.30;;;5.10;99.90;;;;;;5091842;28;20601;-76
2022/12/23 11:19:44;;;;;;;64.47;37.50;;;5.10;99.90;;;;;;5091854;28;20196;-73
2022/12/23 11:22:23;;;;;;;66.70;39.17;;;5.10;99.90;;;;;;5094199;28;20568;-78
2022/12/23 11:24:50;;;;;;;65.77;37.80;;;5.20;99.90;;;;;;5095796;28;20199;-76
2022/12/23 11:27:19;;;;;;;62.47;36.27;;;5.10;99.90;;;;;;5094146;28;20568;-77
2022/12/23 11:29:48;;;;;;;64.87;37.87;;;5.20;99.90;;;;;;5094806;28;20200;-75
2022/12/23 11:32:18;;;;;;;63.50;37.93;;;5.30;99.90;;;;;;5094637;28;20597;-74
2022/12/23 11:34:47;;;;;;;61.97;35.73;;;5.30;99.90;;;;;;5095946;28;20204;-74
2022/12/23 11:37:25;;;;;;;67.47;40.20;;;5.20;99.90;;;;;;5094666;28;20212;-75
2022/12/23 11:39:52;;;;;;;65.77;38.57;;;5.20;99.90;;;;;;5095427;28;20192;-74
2022/12/23 11:42:29;;;;;;;58.97;35.57;;;5.20;99.90;;;;;;5094828;28;20200;-74
2022/12/23 11:44:59;;;;;;;65.70;37.40;;;5.20;99.90;;;;;;5094161;28;20192;-73
2022/12/23 11:47:39;;;;;;;65.87;37.97;;;5.30;99.90;;;;;;5095107;28;20673;-73
2022/12/23 11:50:29;;;;;;;65.27;36.83;;;5.30;99.90;;;;;;5094233;28;20203;-75
2022/12/23 11:53:04;;;;;;;65.93;38.10;;;5.30;99.90;;;;;;5078329;28;20226;-72
2022/12/23 11:55:32;;;;;;;62.13;37.57;;;5.40;99.90;;;;;;5094919;28;20230;-74
2022/12/23 11:58:02;;;;;;;65.07;38.03;;;5.40;99.90;;;;;;5095054;28;20224;-76
2022/12/23 12:00:37;;;;;;;63.90;36.53;;;5.40;99.90;;;;;;5096396;28;20235;-76
2022/12/23 12:03:06;;;;;;;71.37;39.30;;;5.40;99.90;;;;;;5094591;28;20562;-76
2022/12/23 12:05:36;;;;;;;69.73;40.90;;;5.50;99.90;;;;;;5077493;28;20208;-75
2022/12/23 12:08:05;;;;;;;71.83;39.93;;;5.50;99.90;;;;;;5075084;28;20210;-73
2022/12/23 12:10:34;;;;;;;67.63;38.33;;;5.50;99.90;;;;;;5084592;28;20251;-76
2022/12/23 12:13:05;;;;;;;66.07;38.27;;;5.50;99.90;;;;;;5094460;28;20302;-74
2022/12/23 12:15:41;;;;;;;65.53;38.50;;;5.50;99.90;;;;;;5094827;28;20230;-71
2022/12/23 12:18:13;;;;;;;66.70;39.57;;;5.50;99.90;;;;;;5093418;28;20204;-73
2022/12/23 12:20:44;;;;;;;63.87;37.50;;;5.50;99.90;;;;;;5085914;28;20196;-73
2022/12/23 12:23:17;;;;;;;63.50;37.77;;;5.50;99.90;;;;;;5094435;28;20199;-75
2022/12/23 12:25:49;;;;;;;73.60;41.67;;;5.60;99.90;;;;;;5093838;28;20220;-74
2022/12/23 12:28:21;;;;;;;67.47;38.33;;;5.60;99.90;;;;;;5094814;28;20207;-74
2022/12/23 12:30:52;;;;;;;67.30;38.37;;;5.60;99.90;;;;;;5093158;28;20193;-75
2022/12/23 12:33:23;;;;;;;70.50;40.17;;;5.60;99.90;;;;;;5094187;28;20587;-73
2022/12/23 12:35:57;;;;;;;66.27;38.27;;;5.60;99.90;;;;;;5093688;28;20216;-73
2022/12/23 12:38:26;;;;;;;74.37;40.67;;;5.60;99.90;;;;;;5093285;28;20640;-77
2022/12/23 12:40:57;;;;;;;60.97;36.03;;;5.60;99.90;;;;;;5073334;28;20204;-73
2022/12/23 12:43:29;;;;;;;68.70;38.03;;;5.50;99.90;;;;;;5077978;28;20664;-76
2022/12/23 12:46:08;;;;;;;69.50;39.87;;;5.50;99.90;;;;;;5095099;28;20192;-75
2022/12/23 12:48:44;;;;;;;68.43;39.33;;;5.50;99.90;;;;;;5095144;28;20196;-78
2022/12/23 12:51:18;;;;;;;64.60;37.70;;;5.50;99.90;;;;;;5094035;28;20207;-77
2022/12/23 12:53:59;;;;;;;66.10;39.10;;;5.40;99.90;;;;;;5093080;28;20204;-74
2022/12/23 12:56:31;;;;;;;65.33;38.57;;;5.40;99.90;;;;;;5092694;28;20224;-74
2022/12/23 12:58:59;;;;;;;71.37;39.77;;;5.40;99.90;;;;;;5093186;28;20204;-75
2022/12/23 13:01:38;;;;;;;71.20;41.07;;;5.30;99.90;;;;;;5093200;28;20230;-74
2022/12/23 13:04:28;;;;;;;75.10;41.50;;;5.30;99.90;;;;;;5092005;28;20204;-75
2022/12/23 13:07:06;;;;;;;68.87;40.80;;;5.20;99.90;;;;;;5093582;28;20184;-72
2022/12/23 13:09:45;;;;;;;73.03;40.90;;;5.10;99.90;;;;;;5091575;28;20406;-74
2022/12/23 13:12:20;;;;;;;77.07;43.73;;;5.00;99.90;;;;;;5092958;28;20330;-73
2022/12/23 13:14:57;;;;;;;69.33;41.23;;;5.00;99.90;;;;;;5092693;28;20206;-73
2022/12/23 13:17:28;;;;;;;78.97;44.37;;;5.00;99.90;;;;;;5092653;28;20206;-72
2022/12/23 13:20:02;;;;;;;75.03;42.27;;;4.90;99.90;;;;;;5091971;28;20207;-73
2022/12/23 13:22:33;;;;;;;78.60;43.77;;;4.90;99.90;;;;;;5092821;28;20206;-73
2022/12/23 13:25:05;;;;;;;75.63;42.43;;;4.90;99.90;;;;;;5092349;28;20197;-73
2022/12/23 13:27:38;;;;;;;81.63;45.57;;;4.80;99.90;;;;;;5093080;28;20196;-73
2022/12/23 13:30:13;;;;;;;76.97;43.90;;;4.80;99.90;;;;;;5093180;28;20196;-73
2022/12/23 13:33:13;;;;;;;84.43;47.30;;;4.70;99.90;;;;;;5092926;28;20204;-74
2022/12/23 13:35:50;;;;;;;79.50;43.63;;;4.60;99.90;;;;;;5090671;28;20211;-74
2022/12/23 13:38:33;;;;;;;79.87;44.33;;;4.60;99.90;;;;;;5093134;28;20191;-74
2022/12/23 13:41:06;;;;;;;79.67;46.87;;;4.60;99.90;;;;;;5090831;28;20208;-74
2022/12/23 13:43:41;;;;;;;86.60;49.17;;;4.50;99.90;;;;;;5091785;28;20564;-74
2022/12/23 13:46:21;;;;;;;99.50;54.33;;;4.50;99.90;;;;;;5093112;28;20609;-74
2022/12/23 13:48:55;;;;;;;88.40;50.33;;;4.40;99.90;;;;;;5078526;28;20197;-76
2022/12/23 13:51:28;;;;;;;98.93;53.83;;;4.40;99.90;;;;;;5073031;28;20656;-73
2022/12/23 13:54:02;;;;;;;89.97;51.13;;;4.40;99.90;;;;;;5080342;28;20231;-72
2022/12/23 13:56:33;;;;;;;90.37;50.83;;;4.40;99.90;;;;;;5093106;28;20689;-74
2022/12/23 13:59:00;;;;;;;85.57;49.03;;;4.30;99.90;;;;;;5092848;28;20214;-74
2022/12/23 14:01:42;;;;;;;86.33;48.77;;;4.30;99.90;;;;;;5092333;28;20210;-75
2022/12/23 14:04:32;;;;;;;82.07;47.13;;;4.30;99.90;;;;;;5092550;28;20560;-74
2022/12/23 14:07:01;;;;;;;85.17;47.77;;;4.30;99.90;;;;;;5092805;28;20207;-74
2022/12/23 18:41:12;;;;;;;110.50;62.57;;;2.20;99.90;;;;;;4908517;29;20229;-78
2022/12/23 18:43:38;;;;;;;104.13;59.03;;;2.30;99.90;;;;;;4931723;29;20216;-79
2022/12/23 18:46:06;;;;;;;110.13;61.00;;;2.40;99.90;;;;;;4932518;29;20205;-79
2022/12/23 18:48:32;;;;;;;103.27;57.00;;;2.50;99.90;;;;;;4932995;29;20249;-79
2022/12/23 18:50:59;;;;;;;105.47;58.67;;;2.60;99.90;;;;;;4933237;29;20209;-80
2022/12/23 18:53:26;;;;;;;110.73;61.50;;;2.70;99.90;;;;;;4932958;29;20211;-80
2022/12/23 18:55:53;;;;;;;101.70;56.50;;;2.80;99.90;;;;;;4933018;29;20205;-80
2022/12/23 18:58:23;;;;;;;110.23;60.37;;;2.90;99.90;;;;;;4933668;29;20693;-84
2022/12/23 19:00:51;;;;;;;99.50;56.80;;;3.00;99.90;;;;;;4927367;29;20214;-82
2022/12/23 19:03:23;;;;;;;99.07;54.60;;;3.10;99.90;;;;;;4926916;29;20213;-83
2022/12/23 19:05:52;;;;;;;93.70;52.70;;;3.10;99.90;;;;;;4932038;29;20207;-80
2022/12/23 19:08:20;;;;;;;97.83;55.37;;;3.20;99.90;;;;;;4930622;29;20202;-81
2022/12/23 19:10:48;;;;;;;121.03;70.00;;;3.30;99.90;;;;;;4934981;29;20244;-86
2022/12/23 19:13:15;;;;;;;107.43;59.43;;;3.30;99.90;;;;;;4937001;29;20236;-86
2022/12/23 19:15:44;;;;;;;99.57;56.10;;;3.30;99.90;;;;;;4937648;29;20289;-82
2022/12/23 19:18:13;;;;;;;99.70;56.37;;;3.40;99.90;;;;;;4941160;29;20229;-84
2022/12/23 19:20:40;;;;;;;109.13;57.33;;;3.40;99.90;;;;;;4939918;29;20213;-82
2022/12/23 19:23:07;;;;;;;98.40;55.10;;;3.50;99.90;;;;;;4948400;29;20554;-81
2022/12/23 19:25:34;;;;;;;96.43;54.23;;;3.50;99.90;;;;;;4958157;29;20551;-84
2022/12/23 19:28:01;;;;;;;96.10;55.27;;;3.50;99.90;;;;;;4957608;29;20276;-83
2022/12/23 19:30:28;;;;;;;103.03;55.83;;;3.50;99.90;;;;;;4952549;29;20277;-83
2022/12/23 19:32:56;;;;;;;100.57;55.33;;;3.60;99.90;;;;;;4939215;29;20213;-84
2022/12/23 19:35:23;;;;;;;95.07;53.30;;;3.60;99.90;;;;;;4939044;29;20206;-83
2022/12/23 19:37:50;;;;;;;101.00;55.53;;;3.60;99.90;;;;;;4934511;29;20256;-80
2022/12/23 19:40:17;;;;;;;96.23;53.30;;;3.60;99.90;;;;;;4933006;29;20245;-85
2022/12/23 19:42:44;;;;;;;102.93;56.03;;;3.60;99.90;;;;;;4940740;29;20205;-82
2022/12/23 19:45:12;;;;;;;98.63;55.63;;;3.60;99.90;;;;;;4940929;29;20293;-84
2022/12/23 19:47:39;;;;;;;98.30;54.80;;;3.70;99.90;;;;;;4938557;29;20283;-82
2022/12/23 19:50:08;;;;;;;98.90;54.10;;;3.70;99.90;;;;;;4921323;29;20214;-82
2022/12/23 19:52:35;;;;;;;98.13;53.87;;;3.70;99.90;;;;;;4921278;29;20214;-82
2022/12/23 19:55:02;;;;;;;101.63;53.47;;;3.70;99.90;;;;;;4921253;29;20651;-82
2022/12/23 19:57:29;;;;;;;96.40;51.67;;;3.70;99.90;;;;;;4918811;29;20232;-82
2022/12/23 19:59:55;;;;;;;98.27;53.53;;;3.80;99.90;;;;;;4915211;29;20214;-79
2022/12/23 20:02:23;;;;;;;94.83;51.60;;;3.80;99.90;;;;;;4906971;29;20232;-80
2022/12/23 20:04:49;;;;;;;94.03;52.27;;;3.80;99.90;;;;;;4920771;29;20238;-79
2022/12/23 20:07:18;;;;;;;98.67;52.40;;;3.80;99.90;;;;;;4916970;29;20210;-78
2022/12/23 20:09:44;;;;;;;94.47;50.53;;;3.80;99.90;;;;;;4913871;29;20222;-79
2022/12/23 20:12:11;;;;;;;99.30;51.97;;;3.90;99.90;;;;;;4909962;29;20217;-80
2022/12/23 20:14:38;;;;;;;97.03;50.70;;;3.90;99.90;;;;;;4911304;29;20214;-80
2022/12/23 20:17:05;;;;;;;95.77;52.63;;;3.90;99.90;;;;;;4898945;29;20590;-79
2022/12/23 20:19:32;;;;;;;96.13;52.27;;;3.90;99.90;;;;;;4912917;29;20217;-79
2022/12/23 20:21:59;;;;;;;93.33;51.77;;;3.90;99.90;;;;;;4913517;29;20206;-80
2022/12/23 20:24:27;;;;;;;100.30;52.30;;;4.00;99.90;;;;;;4912039;29;20310;-79
2022/12/23 20:26:54;;;;;;;96.60;52.97;;;4.00;99.90;;;;;;4914429;29;20220;-78
2022/12/23 20:29:20;;;;;;;94.40;51.93;;;4.00;99.90;;;;;;4915089;29;20489;-78
2022/12/23 20:31:47;;;;;;;90.10;49.70;;;4.00;99.90;;;;;;4914000;29;20243;-80